Southard, Oklahoma
Current Conditions -  °F | °C
As of 4:15 AM on Thursday 18 Dec 2014 (Local Time) from KJWG Reporting Station
Haze Haze  
Wind Chill: 38°   Ceiling: 300
Heat Index: 38°   Visibility: 1.7mi
Dew Point: 38°   Wind: 0mph
Humidity: 100%   Direction: NA
Pressure: 30.09"   Gusts: NA
Location:  36.06°N, 98.48°W
Report Text: KJWG 181015Z AUTO 00000KT 1 3/4SM BR OVC003 03/03 A3009 RMK AO2 T00310031 TSNO
Loading
Personal Weather Stations






























Interactive Weather Map New forecast layout! Learn more

10-Day Weather Forecast

Advertisements
Track Severe Weather on mobile